sensor_id;sensor_type;location;lat;lon;timestamp;temperature;humidity
7572;DHT22;3827;49.928;8.548;2023-05-20T00:00:24;13.60;1.00
7572;DHT22;3827;49.928;8.548;2023-05-20T00:02:51;13.50;1.00
7572;DHT22;3827;49.928;8.548;2023-05-20T00:05:18;13.50;1.00
7572;DHT22;3827;49.928;8.548;2023-05-20T00:07:44;13.40;1.00
7572;DHT22;3827;49.928;8.548;2023-05-20T00:10:13;13.30;1.00
7572;DHT22;3827;49.928;8.548;2023-05-20T00:12:40;13.20;1.00
7572;DHT22;3827;49.928;8.548;2023-05-20T00:15:08;13.20;1.00
7572;DHT22;3827;49.928;8.548;2023-05-20T00:17:36;13.10;1.00
7572;DHT22;3827;49.928;8.548;2023-05-20T00:20:03;13.10;1.00
7572;DHT22;3827;49.928;8.548;2023-05-20T00:22:30;13.00;1.00
7572;DHT22;3827;49.928;8.548;2023-05-20T00:24:57;13.00;1.00
7572;DHT22;3827;49.928;8.548;2023-05-20T00:27:25;13.00;1.00
7572;DHT22;3827;49.928;8.548;2023-05-20T00:29:52;12.90;1.00
7572;DHT22;3827;49.928;8.548;2023-05-20T00:32:19;12.90;1.00
7572;DHT22;3827;49.928;8.548;2023-05-20T00:34:55;13.10;1.00
7572;DHT22;3827;49.928;8.548;2023-05-20T00:37:22;12.80;1.00
7572;DHT22;3827;49.928;8.548;2023-05-20T00:39:49;12.70;1.00
7572;DHT22;3827;49.928;8.548;2023-05-20T00:42:19;12.70;1.00
7572;DHT22;3827;49.928;8.548;2023-05-20T00:44:48;12.60;1.00
7572;DHT22;3827;49.928;8.548;2023-05-20T00:47:15;12.50;1.00
7572;DHT22;3827;49.928;8.548;2023-05-20T00:49:43;12.50;1.00
7572;DHT22;3827;49.928;8.548;2023-05-20T00:52:11;12.50;1.00
7572;DHT22;3827;49.928;8.548;2023-05-20T00:54:38;12.40;1.00
7572;DHT22;3827;49.928;8.548;2023-05-20T00:57:06;12.40;1.00
7572;DHT22;3827;49.928;8.548;2023-05-20T00:59:33;12.30;1.00
7572;DHT22;3827;49.928;8.548;2023-05-20T01:02:02;12.30;1.00
7572;DHT22;3827;49.928;8.548;2023-05-20T01:04:29;12.30;1.00
7572;DHT22;3827;49.928;8.548;2023-05-20T01:06:56;12.30;1.00
7572;DHT22;3827;49.928;8.548;2023-05-20T01:09:24;12.30;1.00
7572;DHT22;3827;49.928;8.548;2023-05-20T01:11:54;12.20;1.00
7572;DHT22;3827;49.928;8.548;2023-05-20T01:14:23;12.20;1.00
7572;DHT22;3827;49.928;8.548;2023-05-20T01:16:53;12.20;1.00
7572;DHT22;3827;49.928;8.548;2023-05-20T01:19:35;12.20;1.00
7572;DHT22;3827;49.928;8.548;2023-05-20T01:22:05;12.20;1.00
7572;DHT22;3827;49.928;8.548;2023-05-20T01:24:34;12.20;1.00
7572;DHT22;3827;49.928;8.548;2023-05-20T01:27:00;12.10;1.00
7572;DHT22;3827;49.928;8.548;2023-05-20T01:29:28;12.10;1.00
7572;DHT22;3827;49.928;8.548;2023-05-20T01:31:58;12.00;3.70
7572;DHT22;3827;49.928;8.548;2023-05-20T01:34:26;12.00;62.90
7572;DHT22;3827;49.928;8.548;2023-05-20T01:36:53;12.00;99.00
7572;DHT22;3827;49.928;8.548;2023-05-20T01:39:21;11.90;99.90
7572;DHT22;3827;49.928;8.548;2023-05-20T01:41:51;11.90;99.90
7572;DHT22;3827;49.928;8.548;2023-05-20T01:44:18;12.40;99.90
7572;DHT22;3827;49.928;8.548;2023-05-20T01:46:48;11.80;99.90
7572;DHT22;3827;49.928;8.548;2023-05-20T01:49:15;11.80;99.90
7572;DHT22;3827;49.928;8.548;2023-05-20T01:51:41;11.70;99.90
7572;DHT22;3827;49.928;8.548;2023-05-20T01:54:08;12.00;99.90
7572;DHT22;3827;49.928;8.548;2023-05-20T01:56:35;11.80;99.90
7572;DHT22;3827;49.928;8.548;2023-05-20T01:59:03;11.80;1.00
7572;DHT22;3827;49.928;8.548;2023-05-20T02:01:30;11.80;1.00
7572;DHT22;3827;49.928;8.548;2023-05-20T02:03:56;11.60;1.00
7572;DHT22;3827;49.928;8.548;2023-05-20T02:06:23;11.70;1.00
7572;DHT22;3827;49.928;8.548;2023-05-20T02:08:50;11.70;1.00
7572;DHT22;3827;49.928;8.548;2023-05-20T02:11:17;11.70;1.00
7572;DHT22;3827;49.928;8.548;2023-05-20T02:13:44;11.70;1.00
7572;DHT22;3827;49.928;8.548;2023-05-20T02:16:12;11.60;1.00
7572;DHT22;3827;49.928;8.548;2023-05-20T02:18:39;11.50;1.00
7572;DHT22;3827;49.928;8.548;2023-05-20T02:21:07;11.50;1.00
7572;DHT22;3827;49.928;8.548;2023-05-20T02:23:34;11.50;1.00
7572;DHT22;3827;49.928;8.548;2023-05-20T02:26:01;11.50;1.00
7572;DHT22;3827;49.928;8.548;2023-05-20T02:28:28;11.00;1.00
7572;DHT22;3827;49.928;8.548;2023-05-20T02:30:54;11.50;1.00
7572;DHT22;3827;49.928;8.548;2023-05-20T02:33:22;11.50;1.00
7572;DHT22;3827;49.928;8.548;2023-05-20T02:35:50;11.40;1.00
7572;DHT22;3827;49.928;8.548;2023-05-20T02:38:17;11.50;1.00
7572;DHT22;3827;49.928;8.548;2023-05-20T02:40:43;11.40;1.00
7572;DHT22;3827;49.928;8.548;2023-05-20T02:43:10;11.40;1.00
7572;DHT22;3827;49.928;8.548;2023-05-20T02:45:37;11.40;1.00
7572;DHT22;3827;49.928;8.548;2023-05-20T02:48:04;11.40;1.00
7572;DHT22;3827;49.928;8.548;2023-05-20T02:50:32;11.40;1.00
7572;DHT22;3827;49.928;8.548;2023-05-20T02:52:59;11.40;1.00
7572;DHT22;3827;49.928;8.548;2023-05-20T02:55:26;11.50;1.00
7572;DHT22;3827;49.928;8.548;2023-05-20T02:57:53;11.40;1.00
7572;DHT22;3827;49.928;8.548;2023-05-20T03:00:20;11.50;1.00
7572;DHT22;3827;49.928;8.548;2023-05-20T03:02:48;11.50;1.00
7572;DHT22;3827;49.928;8.548;2023-05-20T03:05:14;11.50;1.00
7572;DHT22;3827;49.928;8.548;2023-05-20T03:07:43;11.50;1.00
7572;DHT22;3827;49.928;8.548;2023-05-20T03:10:10;11.50;1.00
7572;DHT22;3827;49.928;8.548;2023-05-20T03:12:37;11.50;16.30
7572;DHT22;3827;49.928;8.548;2023-05-20T03:15:05;11.50;6.30
7572;DHT22;3827;49.928;8.548;2023-05-20T03:17:32;11.50;1.00
7572;DHT22;3827;49.928;8.548;2023-05-20T03:19:59;11.50;29.20
7572;DHT22;3827;49.928;8.548;2023-05-20T03:22:26;11.50;5.00
7572;DHT22;3827;49.928;8.548;2023-05-20T03:24:54;11.50;50.80
7572;DHT22;3827;49.928;8.548;2023-05-20T03:27:21;11.50;99.90
7572;DHT22;3827;49.928;8.548;2023-05-20T03:29:50;11.40;99.90
7572;DHT22;3827;49.928;8.548;2023-05-20T03:32:19;11.50;99.90
7572;DHT22;3827;49.928;8.548;2023-05-20T03:34:46;11.40;99.90
7572;DHT22;3827;49.928;8.548;2023-05-20T03:37:12;11.40;99.90
7572;DHT22;3827;49.928;8.548;2023-05-20T03:39:39;11.40;1.00
7572;DHT22;3827;49.928;8.548;2023-05-20T03:42:07;11.40;1.00
7572;DHT22;3827;49.928;8.548;2023-05-20T03:44:34;11.40;1.00
7572;DHT22;3827;49.928;8.548;2023-05-20T03:47:01;11.40;1.00
7572;DHT22;3827;49.928;8.548;2023-05-20T03:49:27;11.40;1.00
7572;DHT22;3827;49.928;8.548;2023-05-20T03:51:54;11.50;1.00
7572;DHT22;3827;49.928;8.548;2023-05-20T03:54:21;11.50;1.00
7572;DHT22;3827;49.928;8.548;2023-05-20T03:56:48;11.50;16.90
7572;DHT22;3827;49.928;8.548;2023-05-20T03:59:17;11.50;99.90
7572;DHT22;3827;49.928;8.548;2023-05-20T04:01:44;11.60;22.40
7572;DHT22;3827;49.928;8.548;2023-05-20T04:04:11;11.50;1.00
7572;DHT22;3827;49.928;8.548;2023-05-20T04:06:38;11.60;75.90
7572;DHT22;3827;49.928;8.548;2023-05-20T04:09:04;12.00;1.00
7572;DHT22;3827;49.928;8.548;2023-05-20T04:11:31;11.70;1.00
7572;DHT22;3827;49.928;8.548;2023-05-20T04:13:58;11.80;1.00
7572;DHT22;3827;49.928;8.548;2023-05-20T04:16:26;11.80;1.00
7572;DHT22;3827;49.928;8.548;2023-05-20T04:18:53;11.90;1.00
7572;DHT22;3827;49.928;8.548;2023-05-20T04:21:20;11.90;1.00
7572;DHT22;3827;49.928;8.548;2023-05-20T04:23:47;11.90;1.00
7572;DHT22;3827;49.928;8.548;2023-05-20T04:26:14;12.00;1.00
7572;DHT22;3827;49.928;8.548;2023-05-20T04:28:41;12.10;1.00
7572;DHT22;3827;49.928;8.548;2023-05-20T04:31:08;12.20;1.00
7572;DHT22;3827;49.928;8.548;2023-05-20T04:33:36;12.30;99.90
7572;DHT22;3827;49.928;8.548;2023-05-20T04:36:05;12.30;99.90
7572;DHT22;3827;49.928;8.548;2023-05-20T04:38:32;12.40;99.90
7572;DHT22;3827;49.928;8.548;2023-05-20T04:40:59;12.50;99.90
7572;DHT22;3827;49.928;8.548;2023-05-20T04:43:27;12.60;3.20
7572;DHT22;3827;49.928;8.548;2023-05-20T04:45:55;12.60;1.00
7572;DHT22;3827;49.928;8.548;2023-05-20T04:48:22;12.80;1.00
7572;DHT22;3827;49.928;8.548;2023-05-20T04:50:51;12.90;1.00
7572;DHT22;3827;49.928;8.548;2023-05-20T04:53:19;13.00;1.00
7572;DHT22;3827;49.928;8.548;2023-05-20T04:55:46;13.00;1.00
7572;DHT22;3827;49.928;8.548;2023-05-20T04:58:14;13.10;1.00
7572;DHT22;3827;49.928;8.548;2023-05-20T05:00:42;13.20;1.00
7572;DHT22;3827;49.928;8.548;2023-05-20T05:03:09;13.30;1.00
7572;DHT22;3827;49.928;8.548;2023-05-20T05:05:37;13.40;1.00
7572;DHT22;3827;49.928;8.548;2023-05-20T05:08:07;13.50;1.00
7572;DHT22;3827;49.928;8.548;2023-05-20T05:10:34;13.70;1.00
7572;DHT22;3827;49.928;8.548;2023-05-20T05:13:01;13.70;1.00
7572;DHT22;3827;49.928;8.548;2023-05-20T05:15:28;13.90;1.00
7572;DHT22;3827;49.928;8.548;2023-05-20T05:17:56;14.10;1.00
7572;DHT22;3827;49.928;8.548;2023-05-20T05:20:23;14.30;1.00
7572;DHT22;3827;49.928;8.548;2023-05-20T05:22:50;14.70;1.00
7572;DHT22;3827;49.928;8.548;2023-05-20T05:25:18;14.60;99.90
7572;DHT22;3827;49.928;8.548;2023-05-20T05:27:45;14.70;99.90
7572;DHT22;3827;49.928;8.548;2023-05-20T05:30:13;14.80;99.90
7572;DHT22;3827;49.928;8.548;2023-05-20T05:32:40;15.00;99.90
7572;DHT22;3827;49.928;8.548;2023-05-20T05:35:07;14.80;99.90
7572;DHT22;3827;49.928;8.548;2023-05-20T05:37:34;14.70;99.90
7572;DHT22;3827;49.928;8.548;2023-05-20T05:40:01;14.80;99.90
7572;DHT22;3827;49.928;8.548;2023-05-20T05:42:29;14.90;99.90
7572;DHT22;3827;49.928;8.548;2023-05-20T05:44:56;14.90;99.90
7572;DHT22;3827;49.928;8.548;2023-05-20T05:47:23;14.90;99.90
7572;DHT22;3827;49.928;8.548;2023-05-20T05:49:54;14.90;99.90
7572;DHT22;3827;49.928;8.548;2023-05-20T05:52:20;14.80;99.90
7572;DHT22;3827;49.928;8.548;2023-05-20T05:54:47;14.90;99.90
7572;DHT22;3827;49.928;8.548;2023-05-20T05:57:14;14.90;99.90
7572;DHT22;3827;49.928;8.548;2023-05-20T05:59:42;15.30;99.90
7572;DHT22;3827;49.928;8.548;2023-05-20T06:02:11;15.10;99.90
7572;DHT22;3827;49.928;8.548;2023-05-20T06:04:39;15.10;99.90
7572;DHT22;3827;49.928;8.548;2023-05-20T06:07:05;15.20;99.90
7572;DHT22;3827;49.928;8.548;2023-05-20T06:09:32;15.20;99.90
7572;DHT22;3827;49.928;8.548;2023-05-20T06:11:59;15.10;99.90
7572;DHT22;3827;49.928;8.548;2023-05-20T06:14:26;15.10;99.90
7572;DHT22;3827;49.928;8.548;2023-05-20T06:16:55;15.30;99.90
7572;DHT22;3827;49.928;8.548;2023-05-20T06:19:21;15.20;99.90
7572;DHT22;3827;49.928;8.548;2023-05-20T06:21:48;15.30;99.90
7572;DHT22;3827;49.928;8.548;2023-05-20T06:24:15;15.30;99.90
7572;DHT22;3827;49.928;8.548;2023-05-20T06:26:42;15.30;99.90
7572;DHT22;3827;49.928;8.548;2023-05-20T06:29:10;15.30;99.90
7572;DHT22;3827;49.928;8.548;2023-05-20T06:31:37;15.10;99.90
7572;DHT22;3827;49.928;8.548;2023-05-20T06:34:05;15.10;99.90
7572;DHT22;3827;49.928;8.548;2023-05-20T06:36:32;15.40;99.90
7572;DHT22;3827;49.928;8.548;2023-05-20T06:38:59;15.50;99.90
7572;DHT22;3827;49.928;8.548;2023-05-20T06:41:25;15.40;99.90
7572;DHT22;3827;49.928;8.548;2023-05-20T06:43:52;15.50;99.90
7572;DHT22;3827;49.928;8.548;2023-05-20T06:46:19;15.50;99.90
7572;DHT22;3827;49.928;8.548;2023-05-20T06:48:46;15.40;99.90
7572;DHT22;3827;49.928;8.548;2023-05-20T06:51:14;15.40;99.90
7572;DHT22;3827;49.928;8.548;2023-05-20T06:53:41;15.50;99.90
7572;DHT22;3827;49.928;8.548;2023-05-20T06:56:07;15.70;99.90
7572;DHT22;3827;49.928;8.548;2023-05-20T06:58:34;15.70;99.90
7572;DHT22;3827;49.928;8.548;2023-05-20T07:01:01;15.80;99.90
7572;DHT22;3827;49.928;8.548;2023-05-20T07:03:28;15.70;99.90
7572;DHT22;3827;49.928;8.548;2023-05-20T07:05:55;15.90;99.90
7572;DHT22;3827;49.928;8.548;2023-05-20T07:08:23;16.00;99.90
7572;DHT22;3827;49.928;8.548;2023-05-20T07:10:50;16.10;99.90
7572;DHT22;3827;49.928;8.548;2023-05-20T07:13:17;16.20;99.90
7572;DHT22;3827;49.928;8.548;2023-05-20T07:15:45;16.00;99.90
7572;DHT22;3827;49.928;8.548;2023-05-20T07:18:12;16.10;99.90
7572;DHT22;3827;49.928;8.548;2023-05-20T07:20:39;16.10;99.90
7572;DHT22;3827;49.928;8.548;2023-05-20T07:23:06;16.30;99.90
7572;DHT22;3827;49.928;8.548;2023-05-20T07:25:34;16.30;99.90
7572;DHT22;3827;49.928;8.548;2023-05-20T07:28:01;15.90;99.90
7572;DHT22;3827;49.928;8.548;2023-05-20T07:30:28;16.00;99.90
7572;DHT22;3827;49.928;8.548;2023-05-20T07:32:55;16.20;99.90
7572;DHT22;3827;49.928;8.548;2023-05-20T07:35:21;16.10;99.90
7572;DHT22;3827;49.928;8.548;2023-05-20T07:37:49;16.30;99.90
7572;DHT22;3827;49.928;8.548;2023-05-20T07:40:15;16.20;99.90
7572;DHT22;3827;49.928;8.548;2023-05-20T07:42:44;16.20;99.90
7572;DHT22;3827;49.928;8.548;2023-05-20T07:45:10;16.40;99.90
7572;DHT22;3827;49.928;8.548;2023-05-20T07:47:38;16.60;99.90
7572;DHT22;3827;49.928;8.548;2023-05-20T07:50:05;16.70;92.40
7572;DHT22;3827;49.928;8.548;2023-05-20T07:52:32;16.80;96.30
7572;DHT22;3827;49.928;8.548;2023-05-20T07:54:59;17.10;88.00
7572;DHT22;3827;49.928;8.548;2023-05-20T07:57:26;17.40;31.40
7572;DHT22;3827;49.928;8.548;2023-05-20T07:59:54;17.40;1.00
7572;DHT22;3827;49.928;8.548;2023-05-20T08:02:21;17.50;4.70
7572;DHT22;3827;49.928;8.548;2023-05-20T08:04:47;17.40;1.00
7572;DHT22;3827;49.928;8.548;2023-05-20T08:07:14;17.40;1.00
7572;DHT22;3827;49.928;8.548;2023-05-20T08:09:41;18.00;1.00
7572;DHT22;3827;49.928;8.548;2023-05-20T08:12:08;17.20;1.00
7572;DHT22;3827;49.928;8.548;2023-05-20T08:14:35;17.20;1.00
7572;DHT22;3827;49.928;8.548;2023-05-20T08:17:03;17.30;1.00
7572;DHT22;3827;49.928;8.548;2023-05-20T08:19:30;17.40;1.00
7572;DHT22;3827;49.928;8.548;2023-05-20T08:21:56;17.50;1.00
7572;DHT22;3827;49.928;8.548;2023-05-20T08:24:23;18.30;1.00
7572;DHT22;3827;49.928;8.548;2023-05-20T08:26:50;18.10;1.00
7572;DHT22;3827;49.928;8.548;2023-05-20T08:29:17;18.60;1.00
7572;DHT22;3827;49.928;8.548;2023-05-20T08:31:44;18.90;1.00
7572;DHT22;3827;49.928;8.548;2023-05-20T08:34:12;18.80;1.00
7572;DHT22;3827;49.928;8.548;2023-05-20T08:36:39;18.80;1.00
7572;DHT22;3827;49.928;8.548;2023-05-20T08:39:05;19.00;1.00
7572;DHT22;3827;49.928;8.548;2023-05-20T08:41:32;19.20;1.00
7572;DHT22;3827;49.928;8.548;2023-05-20T08:44:00;18.80;1.00
7572;DHT22;3827;49.928;8.548;2023-05-20T08:46:27;19.30;1.00
7572;DHT22;3827;49.928;8.548;2023-05-20T08:48:54;19.80;1.00
7572;DHT22;3827;49.928;8.548;2023-05-20T08:51:23;19.60;1.00
7572;DHT22;3827;49.928;8.548;2023-05-20T08:53:52;19.50;1.00
7572;DHT22;3827;49.928;8.548;2023-05-20T08:56:20;19.20;1.00
7572;DHT22;3827;49.928;8.548;2023-05-20T08:58:48;19.40;1.00
7572;DHT22;3827;49.928;8.548;2023-05-20T09:01:15;19.10;1.00
7572;DHT22;3827;49.928;8.548;2023-05-20T09:03:42;19.10;1.00
7572;DHT22;3827;49.928;8.548;2023-05-20T09:06:09;19.10;1.00
7572;DHT22;3827;49.928;8.548;2023-05-20T09:08:38;19.30;1.00
7572;DHT22;3827;49.928;8.548;2023-05-20T09:11:08;19.60;1.00
7572;DHT22;3827;49.928;8.548;2023-05-20T09:13:35;19.80;1.00
7572;DHT22;3827;49.928;8.548;2023-05-20T09:16:02;19.80;1.00
7572;DHT22;3827;49.928;8.548;2023-05-20T09:18:30;19.80;1.00
7572;DHT22;3827;49.928;8.548;2023-05-20T09:20:57;19.70;1.00
7572;DHT22;3827;49.928;8.548;2023-05-20T09:23:24;19.50;1.00
7572;DHT22;3827;49.928;8.548;2023-05-20T09:25:53;19.10;1.00
7572;DHT22;3827;49.928;8.548;2023-05-20T09:28:22;19.60;1.00
7572;DHT22;3827;49.928;8.548;2023-05-20T09:30:49;20.10;1.00
7572;DHT22;3827;49.928;8.548;2023-05-20T09:33:16;20.50;1.00
7572;DHT22;3827;49.928;8.548;2023-05-20T09:35:43;20.70;1.00
7572;DHT22;3827;49.928;8.548;2023-05-20T09:38:10;20.90;1.00
7572;DHT22;3827;49.928;8.548;2023-05-20T09:40:38;21.30;1.00
7572;DHT22;3827;49.928;8.548;2023-05-20T09:43:07;21.60;1.00
7572;DHT22;3827;49.928;8.548;2023-05-20T09:45:36;21.60;1.00
7572;DHT22;3827;49.928;8.548;2023-05-20T09:48:04;22.00;1.00
7572;DHT22;3827;49.928;8.548;2023-05-20T09:50:31;22.50;1.00
7572;DHT22;3827;49.928;8.548;2023-05-20T09:53:01;22.70;1.00
7572;DHT22;3827;49.928;8.548;2023-05-20T09:55:28;22.40;1.00
7572;DHT22;3827;49.928;8.548;2023-05-20T09:57:58;22.10;1.00
7572;DHT22;3827;49.928;8.548;2023-05-20T10:00:28;22.10;1.00
7572;DHT22;3827;49.928;8.548;2023-05-20T10:02:56;22.40;1.00
7572;DHT22;3827;49.928;8.548;2023-05-20T10:05:26;23.10;1.00
7572;DHT22;3827;49.928;8.548;2023-05-20T10:08:26;23.00;1.00
7572;DHT22;3827;49.928;8.548;2023-05-20T10:11:15;23.10;1.00
7572;DHT22;3827;49.928;8.548;2023-05-20T10:13:55;22.90;1.00
7572;DHT22;3827;49.928;8.548;2023-05-20T10:19:26;21.60;1.00
7572;DHT22;3827;49.928;8.548;2023-05-20T10:21:58;21.40;1.00
7572;DHT22;3827;49.928;8.548;2023-05-20T10:24:30;21.30;1.00
7572;DHT22;3827;49.928;8.548;2023-05-20T10:26:58;21.30;1.00
7572;DHT22;3827;49.928;8.548;2023-05-20T10:29:25;21.40;1.00
7572;DHT22;3827;49.928;8.548;2023-05-20T10:31:54;21.60;1.00
7572;DHT22;3827;49.928;8.548;2023-05-20T10:34:22;22.10;1.00
7572;DHT22;3827;49.928;8.548;2023-05-20T10:36:57;22.20;1.00
7572;DHT22;3827;49.928;8.548;2023-05-20T10:39:28;22.50;1.00
7572;DHT22;3827;49.928;8.548;2023-05-20T10:42:05;22.70;1.00
7572;DHT22;3827;49.928;8.548;2023-05-20T10:44:42;22.90;1.00
7572;DHT22;3827;49.928;8.548;2023-05-20T10:47:10;23.20;1.00
7572;DHT22;3827;49.928;8.548;2023-05-20T10:49:40;22.50;1.00
7572;DHT22;3827;49.928;8.548;2023-05-20T10:52:07;22.50;1.00
7572;DHT22;3827;49.928;8.548;2023-05-20T10:54:37;22.50;1.00
7572;DHT22;3827;49.928;8.548;2023-05-20T10:57:09;22.30;1.00
7572;DHT22;3827;49.928;8.548;2023-05-20T10:59:36;22.50;1.00
7572;DHT22;3827;49.928;8.548;2023-05-20T11:02:03;22.50;1.00
7572;DHT22;3827;49.928;8.548;2023-05-20T11:04:32;22.50;1.00
7572;DHT22;3827;49.928;8.548;2023-05-20T11:06:58;22.20;1.00
7572;DHT22;3827;49.928;8.548;2023-05-20T11:09:25;22.30;1.00
7572;DHT22;3827;49.928;8.548;2023-05-20T11:11:53;22.50;1.00
7572;DHT22;3827;49.928;8.548;2023-05-20T11:14:20;23.10;1.00
7572;DHT22;3827;49.928;8.548;2023-05-20T11:16:50;23.60;1.00
7572;DHT22;3827;49.928;8.548;2023-05-20T11:19:17;22.90;1.00
7572;DHT22;3827;49.928;8.548;2023-05-20T11:21:46;22.80;1.00
7572;DHT22;3827;49.928;8.548;2023-05-20T11:24:13;22.50;1.00
7572;DHT22;3827;49.928;8.548;2023-05-20T11:26:41;22.80;1.00
7572;DHT22;3827;49.928;8.548;2023-05-20T11:29:08;22.80;1.00
7572;DHT22;3827;49.928;8.548;2023-05-20T11:31:37;23.10;1.00
7572;DHT22;3827;49.928;8.548;2023-05-20T11:34:04;22.80;1.00
7572;DHT22;3827;49.928;8.548;2023-05-20T11:36:31;22.90;1.00
7572;DHT22;3827;49.928;8.548;2023-05-20T11:38:59;23.00;1.00
7572;DHT22;3827;49.928;8.548;2023-05-20T11:41:27;23.30;1.00
7572;DHT22;3827;49.928;8.548;2023-05-20T11:43:57;23.60;1.00
7572;DHT22;3827;49.928;8.548;2023-05-20T11:46:25;24.30;1.00
7572;DHT22;3827;49.928;8.548;2023-05-20T11:48:53;24.20;1.00
7572;DHT22;3827;49.928;8.548;2023-05-20T11:51:22;24.40;1.00
7572;DHT22;3827;49.928;8.548;2023-05-20T11:53:50;24.40;1.00
7572;DHT22;3827;49.928;8.548;2023-05-20T11:56:19;24.80;1.00
7572;DHT22;3827;49.928;8.548;2023-05-20T11:58:47;24.80;1.00
7572;DHT22;3827;49.928;8.548;2023-05-20T12:01:13;24.80;1.00
7572;DHT22;3827;49.928;8.548;2023-05-20T12:03:40;24.80;1.00
7572;DHT22;3827;49.928;8.548;2023-05-20T12:06:08;25.00;1.00
7572;DHT22;3827;49.928;8.548;2023-05-20T12:08:36;24.60;1.00
7572;DHT22;3827;49.928;8.548;2023-05-20T12:11:03;24.40;1.00
7572;DHT22;3827;49.928;8.548;2023-05-20T12:13:31;24.70;1.00
7572;DHT22;3827;49.928;8.548;2023-05-20T12:15:58;25.30;1.00
7572;DHT22;3827;49.928;8.548;2023-05-20T12:18:25;25.40;1.00
7572;DHT22;3827;49.928;8.548;2023-05-20T12:20:52;25.00;1.00
7572;DHT22;3827;49.928;8.548;2023-05-20T12:23:19;24.90;1.00
7572;DHT22;3827;49.928;8.548;2023-05-20T12:25:46;25.00;1.00
7572;DHT22;3827;49.928;8.548;2023-05-20T12:28:14;24.80;1.00
7572;DHT22;3827;49.928;8.548;2023-05-20T12:30:43;24.60;1.00
7572;DHT22;3827;49.928;8.548;2023-05-20T12:33:10;24.70;1.00
7572;DHT22;3827;49.928;8.548;2023-05-20T12:35:39;24.60;1.00
7572;DHT22;3827;49.928;8.548;2023-05-20T12:38:06;24.20;1.00
7572;DHT22;3827;49.928;8.548;2023-05-20T12:40:34;23.90;1.00
7572;DHT22;3827;49.928;8.548;2023-05-20T12:43:01;23.30;1.00
7572;DHT22;3827;49.928;8.548;2023-05-20T12:45:29;23.20;1.00
7572;DHT22;3827;49.928;8.548;2023-05-20T12:47:57;23.20;1.00
7572;DHT22;3827;49.928;8.548;2023-05-20T12:50:24;23.90;1.00
7572;DHT22;3827;49.928;8.548;2023-05-20T12:52:50;24.70;1.00
7572;DHT22;3827;49.928;8.548;2023-05-20T12:55:17;24.50;1.00
7572;DHT22;3827;49.928;8.548;2023-05-20T12:57:45;24.30;1.00
7572;DHT22;3827;49.928;8.548;2023-05-20T13:00:13;23.60;1.00
7572;DHT22;3827;49.928;8.548;2023-05-20T13:02:41;22.60;1.00
7572;DHT22;3827;49.928;8.548;2023-05-20T13:05:09;22.40;1.00
7572;DHT22;3827;49.928;8.548;2023-05-20T13:07:36;22.30;1.00
7572;DHT22;3827;49.928;8.548;2023-05-20T13:10:04;22.60;1.00
7572;DHT22;3827;49.928;8.548;2023-05-20T13:12:32;23.20;1.00
7572;DHT22;3827;49.928;8.548;2023-05-20T13:14:59;23.90;1.00
7572;DHT22;3827;49.928;8.548;2023-05-20T13:17:26;23.80;1.00
7572;DHT22;3827;49.928;8.548;2023-05-20T13:19:53;24.10;1.00
7572;DHT22;3827;49.928;8.548;2023-05-20T13:22:21;23.70;1.00
7572;DHT22;3827;49.928;8.548;2023-05-20T13:24:48;23.50;1.00
7572;DHT22;3827;49.928;8.548;2023-05-20T13:27:15;23.80;1.00
7572;DHT22;3827;49.928;8.548;2023-05-20T13:29:42;23.90;1.00
7572;DHT22;3827;49.928;8.548;2023-05-20T13:32:09;23.60;1.00
7572;DHT22;3827;49.928;8.548;2023-05-20T13:34:36;23.10;1.00
7572;DHT22;3827;49.928;8.548;2023-05-20T13:37:03;22.20;1.00
7572;DHT22;3827;49.928;8.548;2023-05-20T13:39:32;22.50;1.00
7572;DHT22;3827;49.928;8.548;2023-05-20T13:41:59;23.00;1.00
7572;DHT22;3827;49.928;8.548;2023-05-20T13:44:26;23.70;1.00
7572;DHT22;3827;49.928;8.548;2023-05-20T13:46:52;24.10;1.00
7572;DHT22;3827;49.928;8.548;2023-05-20T13:49:20;24.30;1.00
7572;DHT22;3827;49.928;8.548;2023-05-20T13:51:46;24.60;1.00
7572;DHT22;3827;49.928;8.548;2023-05-20T13:54:13;25.10;1.00
7572;DHT22;3827;49.928;8.548;2023-05-20T13:56:41;24.70;1.00
7572;DHT22;3827;49.928;8.548;2023-05-20T13:59:08;25.00;1.00
7572;DHT22;3827;49.928;8.548;2023-05-20T14:01:35;25.20;1.00
7572;DHT22;3827;49.928;8.548;2023-05-20T14:04:02;24.70;1.00
7572;DHT22;3827;49.928;8.548;2023-05-20T14:06:29;24.40;1.00
7572;DHT22;3827;49.928;8.548;2023-05-20T14:08:57;24.40;1.00
7572;DHT22;3827;49.928;8.548;2023-05-20T14:11:24;24.20;1.00
7572;DHT22;3827;49.928;8.548;2023-05-20T14:13:52;24.50;1.00
7572;DHT22;3827;49.928;8.548;2023-05-20T14:16:19;24.50;1.00
7572;DHT22;3827;49.928;8.548;2023-05-20T14:18:46;25.20;1.00
7572;DHT22;3827;49.928;8.548;2023-05-20T14:21:12;25.60;1.00
7572;DHT22;3827;49.928;8.548;2023-05-20T14:23:39;25.20;1.00
7572;DHT22;3827;49.928;8.548;2023-05-20T14:26:09;25.30;1.00
7572;DHT22;3827;49.928;8.548;2023-05-20T14:28:35;25.60;1.00
7572;DHT22;3827;49.928;8.548;2023-05-20T14:31:04;25.30;1.00
7572;DHT22;3827;49.928;8.548;2023-05-20T14:33:31;25.80;1.00
7572;DHT22;3827;49.928;8.548;2023-05-20T14:35:58;25.30;1.00
7572;DHT22;3827;49.928;8.548;2023-05-20T14:38:25;25.90;1.00
7572;DHT22;3827;49.928;8.548;2023-05-20T14:40:52;26.00;1.00
7572;DHT22;3827;49.928;8.548;2023-05-20T14:43:18;24.80;1.00
7572;DHT22;3827;49.928;8.548;2023-05-20T14:45:45;24.50;1.00
7572;DHT22;3827;49.928;8.548;2023-05-20T14:48:14;24.40;1.00
7572;DHT22;3827;49.928;8.548;2023-05-20T14:50:41;24.00;1.00
7572;DHT22;3827;49.928;8.548;2023-05-20T14:53:08;24.20;1.00
7572;DHT22;3827;49.928;8.548;2023-05-20T14:55:35;24.40;1.00
7572;DHT22;3827;49.928;8.548;2023-05-20T14:58:02;24.70;1.00
7572;DHT22;3827;49.928;8.548;2023-05-20T15:00:28;24.70;1.00
7572;DHT22;3827;49.928;8.548;2023-05-20T15:02:57;24.20;1.00
7572;DHT22;3827;49.928;8.548;2023-05-20T15:05:25;23.90;1.00
7572;DHT22;3827;49.928;8.548;2023-05-20T15:07:52;23.50;1.00
7572;DHT22;3827;49.928;8.548;2023-05-20T15:10:19;23.90;1.00
7572;DHT22;3827;49.928;8.548;2023-05-20T15:12:46;24.40;1.00
7572;DHT22;3827;49.928;8.548;2023-05-20T15:15:12;24.40;1.00
7572;DHT22;3827;49.928;8.548;2023-05-20T15:17:39;24.80;1.00
7572;DHT22;3827;49.928;8.548;2023-05-20T15:20:07;24.40;1.00
7572;DHT22;3827;49.928;8.548;2023-05-20T15:22:36;24.50;1.00
7572;DHT22;3827;49.928;8.548;2023-05-20T15:25:03;24.20;1.00
7572;DHT22;3827;49.928;8.548;2023-05-20T15:27:30;23.90;1.00
7572;DHT22;3827;49.928;8.548;2023-05-20T15:29:57;23.70;1.00
7572;DHT22;3827;49.928;8.548;2023-05-20T15:32:24;23.80;1.00
7572;DHT22;3827;49.928;8.548;2023-05-20T15:34:51;23.70;1.00
7572;DHT22;3827;49.928;8.548;2023-05-20T15:37:18;23.50;1.00
7572;DHT22;3827;49.928;8.548;2023-05-20T15:39:47;23.60;1.00
7572;DHT22;3827;49.928;8.548;2023-05-20T15:42:14;23.40;1.00
7572;DHT22;3827;49.928;8.548;2023-05-20T15:44:42;23.60;1.00
7572;DHT22;3827;49.928;8.548;2023-05-20T15:47:09;23.40;1.00
7572;DHT22;3827;49.928;8.548;2023-05-20T15:49:36;23.40;1.00
7572;DHT22;3827;49.928;8.548;2023-05-20T15:52:03;23.10;1.00
7572;DHT22;3827;49.928;8.548;2023-05-20T15:54:30;22.90;1.00
7572;DHT22;3827;49.928;8.548;2023-05-20T15:56:59;22.80;1.00
7572;DHT22;3827;49.928;8.548;2023-05-20T15:59:27;22.80;1.00
7572;DHT22;3827;49.928;8.548;2023-05-20T16:01:53;22.80;1.00
7572;DHT22;3827;49.928;8.548;2023-05-20T16:04:20;22.70;1.00
7572;DHT22;3827;49.928;8.548;2023-05-20T16:06:47;22.80;1.00
7572;DHT22;3827;49.928;8.548;2023-05-20T16:09:14;22.90;1.00
7572;DHT22;3827;49.928;8.548;2023-05-20T16:11:41;22.90;1.00
7572;DHT22;3827;49.928;8.548;2023-05-20T16:14:09;23.00;1.00
7572;DHT22;3827;49.928;8.548;2023-05-20T16:16:35;23.10;1.00
7572;DHT22;3827;49.928;8.548;2023-05-20T16:19:02;22.90;1.00